Accueil
METAR-TAF:

METAR-TAF

Aéroports :

Carmi Municipal Airport

Carmi, Illinois, États-Unis

latitude: 38-05-22N, longitude: 088-07-23W, altitude: 118 m

Observation

Le bulletin a été fait il y a 5 minutes, à 08:15 UTC
Vent 5 kt de nord
Température 0°C
Humidité 80%
Pression 1021 hPa
Visibilité: 16.1 km
Ciel couvert à une hauteur de 11000 ft

METAR: KCUL 230815Z AUTO 36005KT 10SM OVC110 00/M03 A3015 RMK AO2

Heure: 02:20 (08:20 UTC)


TAF: absent

Observations et prévisions météorologiques de plus de 4000 aéroports (messages METAR et TAF).

Les stations disponibles sont représentées par des disques jaunes et rouges sur la carte.

Passer la souris dessus pour voir le nom de la station.

Cliquer dessus pour voir les observations et prévisions météorologiques.

Pour changer de carte: cliquez sur les boutons verts avec une croix noire pour zoomer, sur le bouton vert avec un tiret pour effectuer un zoom arrière, ou sur les flèches vertes pour les cartes adjacentes.


METAR-TAF: